Time,TemperatureF,DewpointF,PressureIn,WindDirection,WindDirectionDegrees,WindSpeedMPH,WindSpeedGustMPH,Humidity,HourlyPrecipIn,Conditions,Clouds,dailyrainin,SolarRadiationWatts/m^2,SoftwareType,DateUTC
2013-06-04 00:02:00,48.0,47.0,-100.00,North,0,0.0,1.0,96,0.00,,,0.00,15.000000,,2013-06-04 07:02:00,
2013-06-04 00:12:00,48.0,47.0,-100.00,North,0,0.0,1.0,96,0.00,,,0.00,15.000000,,2013-06-04 07:12:00,
2013-06-04 00:22:00,48.0,47.0,-100.00,North,0,0.0,1.0,96,0.00,,,0.00,15.000000,,2013-06-04 07:22:00,
2013-06-04 00:32:00,48.0,47.0,-100.00,North,0,0.0,1.0,96,0.00,,,0.00,15.000000,,2013-06-04 07:32:00,
2013-06-04 01:02:00,46.0,45.0,-100.00,North,0,0.0,0.0,98,0.00,,,0.00,15.000000,,2013-06-04 08:02:00,
2013-06-04 01:12:00,46.0,45.0,-100.00,North,0,0.0,0.0,98,0.00,,,0.00,15.000000,,2013-06-04 08:12:00,
2013-06-04 01:22:00,46.0,45.0,-100.00,North,0,0.0,0.0,98,0.00,,,0.00,15.000000,,2013-06-04 08:22:00,
2013-06-04 01:32:00,46.0,45.0,-100.00,North,0,0.0,0.0,98,0.00,,,0.00,15.000000,,2013-06-04 08:32:00,
2013-06-04 01:52:00,45.0,45.0,-100.00,North,0,0.0,1.0,99,0.00,,,0.00,16.000000,,2013-06-04 08:52:00,
2013-06-04 02:02:00,45.0,45.0,-100.00,North,0,0.0,1.0,99,0.00,,,0.00,16.000000,,2013-06-04 09:02:00,
2013-06-04 02:32:00,45.0,45.0,-100.00,North,0,0.0,1.0,99,0.00,,,0.00,16.000000,,2013-06-04 09:32:00,
2013-06-04 03:02:00,44.0,44.0,-100.00,North,0,0.0,0.0,100,0.00,,,0.00,16.000000,,2013-06-04 10:02:00,
2013-06-04 03:53:00,43.0,43.0,-100.00,North,0,0.0,0.0,100,0.00,,,0.00,17.000000,,2013-06-04 10:53:00,
2013-06-04 04:02:00,43.0,43.0,-100.00,North,0,0.0,0.0,100,0.00,,,0.00,17.000000,,2013-06-04 11:02:00,
2013-06-04 04:52:00,42.0,42.0,-100.00,North,0,0.0,0.0,100,-99.99,,,0.00,17.000000,,2013-06-04 11:52:00,
2013-06-04 05:02:00,42.0,42.0,-100.00,North,0,0.0,0.0,100,-99.99,,,0.00,17.000000,,2013-06-04 12:02:00,
2013-06-04 05:52:00,43.0,43.0,-100.00,North,0,0.0,0.0,100,-99.99,,,0.00,18.000000,,2013-06-04 12:52:00,
2013-06-04 06:02:00,43.0,43.0,-100.00,North,0,0.0,0.0,100,-99.99,,,0.00,18.000000,,2013-06-04 13:02:00,
2013-06-04 06:12:00,43.0,43.0,-100.00,North,0,0.0,0.0,100,-99.99,,,0.00,18.000000,,2013-06-04 13:12:00,
2013-06-04 06:22:00,43.0,43.0,-100.00,North,0,0.0,0.0,100,-99.99,,,0.00,18.000000,,2013-06-04 13:22:00,
2013-06-04 06:32:00,43.0,43.0,-100.00,North,0,0.0,0.0,100,-99.99,,,0.00,18.000000,,2013-06-04 13:32:00,
2013-06-04 07:02:00,44.0,44.0,-100.00,North,0,0.0,0.0,99,-99.99,,,0.00,18.000000,,2013-06-04 14:02:00,
2013-06-04 07:52:00,46.0,46.0,-100.00,SE,144,0.0,1.0,100,-99.99,,,0.00,18.000000,,2013-06-04 14:52:00,
2013-06-04 08:02:00,46.0,46.0,-100.00,SE,144,0.0,1.0,100,-99.99,,,0.00,18.000000,,2013-06-04 15:02:00,
2013-06-04 08:53:00,51.0,49.0,-100.00,East,99,1.0,2.0,92,-99.99,,,0.00,18.000000,,2013-06-04 15:53:00,
2013-06-04 09:03:00,51.0,49.0,-100.00,East,99,1.0,2.0,92,-99.99,,,0.00,18.000000,,2013-06-04 16:03:00,
2013-06-04 09:12:00,51.0,49.0,-100.00,East,99,1.0,2.0,92,-99.99,,,0.00,18.000000,,2013-06-04 16:12:00,
2013-06-04 09:22:00,51.0,49.0,-100.00,East,99,1.0,2.0,92,-99.99,,,0.00,18.000000,,2013-06-04 16:22:00,
2013-06-04 09:32:00,51.0,49.0,-100.00,East,99,1.0,2.0,92,-99.99,,,0.00,18.000000,,2013-06-04 16:32:00,
2013-06-04 09:53:00,58.0,49.0,-100.00,ENE,76,1.0,3.0,72,-99.99,,,0.00,15.000000,,2013-06-04 16:53:00,
2013-06-04 10:02:00,58.0,49.0,-100.00,ENE,76,1.0,3.0,72,-99.99,,,0.00,15.000000,,2013-06-04 17:02:00,
2013-06-04 10:12:00,58.0,49.0,-100.00,ENE,76,1.0,3.0,72,-99.99,,,0.00,15.000000,,2013-06-04 17:12:00,
2013-06-04 10:22:00,58.0,49.0,-100.00,ENE,76,1.0,3.0,72,-99.99,,,0.00,15.000000,,2013-06-04 17:22:00,
2013-06-04 10:32:00,58.0,49.0,-100.00,ENE,76,1.0,3.0,72,-99.99,,,0.00,15.000000,,2013-06-04 17:32:00,
2013-06-04 11:02:00,61.0,49.0,-100.00,NE,49,1.0,3.0,65,0.00,,,0.00,11.000000,,2013-06-04 18:02:00,
2013-06-04 11:12:00,61.0,49.0,-100.00,NE,49,1.0,3.0,65,0.00,,,0.00,11.000000,,2013-06-04 18:12:00,
2013-06-04 11:22:00,61.0,49.0,-100.00,NE,49,1.0,3.0,65,0.00,,,0.00,11.000000,,2013-06-04 18:22:00,
2013-06-04 11:32:00,61.0,49.0,-100.00,NE,49,1.0,3.0,65,0.00,,,0.00,11.000000,,2013-06-04 18:32:00,
2013-06-04 11:52:00,66.0,50.0,-100.00,NNE,22,1.0,3.0,56,0.00,,,0.00,9.000000,,2013-06-04 18:52:00,
2013-06-04 12:02:00,66.0,50.0,-100.00,NNE,22,1.0,3.0,56,0.00,,,0.00,9.000000,,2013-06-04 19:02:00,
2013-06-04 12:12:00,66.0,50.0,-100.00,NNE,22,1.0,3.0,56,0.00,,,0.00,9.000000,,2013-06-04 19:12:00,
2013-06-04 12:22:00,66.0,50.0,-100.00,NNE,22,1.0,3.0,56,0.00,,,0.00,9.000000,,2013-06-04 19:22:00,
2013-06-04 12:32:00,66.0,50.0,-100.00,NNE,22,1.0,3.0,56,0.00,,,0.00,9.000000,,2013-06-04 19:32:00,
2013-06-04 12:52:00,68.0,51.0,-100.00,NE,51,1.0,3.0,54,0.00,,,0.00,7.000000,,2013-06-04 19:52:00,
2013-06-04 13:02:00,68.0,51.0,-100.00,NE,51,1.0,3.0,54,0.00,,,0.00,7.000000,,2013-06-04 20:02:00,
2013-06-04 13:12:00,68.0,51.0,-100.00,NE,51,1.0,3.0,54,0.00,,,0.00,7.000000,,2013-06-04 20:12:00,
2013-06-04 13:22:00,68.0,51.0,-100.00,NE,51,1.0,3.0,54,0.00,,,0.00,7.000000,,2013-06-04 20:22:00,
2013-06-04 13:32:00,68.0,51.0,-100.00,NE,51,1.0,3.0,54,0.00,,,0.00,7.000000,,2013-06-04 20:32:00,
2013-06-04 13:53:00,70.0,52.0,-100.00,North,359,1.0,4.0,53,0.00,,,0.00,6.000000,,2013-06-04 20:53:00,
2013-06-04 14:02:00,70.0,52.0,-100.00,North,359,1.0,4.0,53,0.00,,,0.00,6.000000,,2013-06-04 21:02:00,
2013-06-04 14:12:00,70.0,52.0,-100.00,North,359,1.0,4.0,53,0.00,,,0.00,6.000000,,2013-06-04 21:12:00,
2013-06-04 14:22:00,70.0,52.0,-100.00,North,359,1.0,4.0,53,0.00,,,0.00,6.000000,,2013-06-04 21:22:00,
2013-06-04 14:33:00,70.0,52.0,-100.00,North,359,1.0,4.0,53,0.00,,,0.00,6.000000,,2013-06-04 21:33:00,
2013-06-04 14:53:00,69.0,55.0,-100.00,SSW,207,2.0,3.0,60,0.00,,,0.00,7.000000,,2013-06-04 21:53:00,
2013-06-04 15:02:00,69.0,55.0,-100.00,SSW,207,2.0,3.0,60,0.00,,,0.00,7.000000,,2013-06-04 22:02:00,
2013-06-04 15:12:00,69.0,55.0,-100.00,SSW,207,2.0,3.0,60,0.00,,,0.00,7.000000,,2013-06-04 22:12:00,
2013-06-04 15:22:00,69.0,55.0,-100.00,SSW,207,2.0,3.0,60,0.00,,,0.00,7.000000,,2013-06-04 22:22:00,
2013-06-04 15:32:00,69.0,55.0,-100.00,SSW,207,2.0,3.0,60,0.00,,,0.00,7.000000,,2013-06-04 22:32:00,
2013-06-04 15:52:00,68.0,52.0,-100.00,South,170,2.0,5.0,57,0.00,,,0.00,8.000000,,2013-06-04 22:52:00,
2013-06-04 16:02:00,68.0,52.0,-100.00,South,170,2.0,5.0,57,0.00,,,0.00,8.000000,,2013-06-04 23:02:00,
2013-06-04 16:12:00,68.0,52.0,-100.00,South,170,2.0,5.0,57,0.00,,,0.00,8.000000,,2013-06-04 23:12:00,
2013-06-04 16:22:00,68.0,52.0,-100.00,South,170,2.0,5.0,57,0.00,,,0.00,8.000000,,2013-06-04 23:22:00,
2013-06-04 16:32:00,68.0,52.0,-100.00,South,170,2.0,5.0,57,0.00,,,0.00,8.000000,,2013-06-04 23:32:00,
2013-06-04 17:02:00,70.0,51.0,-100.00,NW,312,1.0,4.0,51,0.00,,,0.00,8.000000,,2013-06-05 00:02:00,
2013-06-04 17:12:00,70.0,51.0,-100.00,NW,312,1.0,4.0,51,0.00,,,0.00,8.000000,,2013-06-05 00:12:00,
2013-06-04 17:22:00,70.0,51.0,-100.00,NW,312,1.0,4.0,51,0.00,,,0.00,8.000000,,2013-06-05 00:22:00,
2013-06-04 17:32:00,70.0,51.0,-100.00,NW,312,1.0,4.0,51,0.00,,,0.00,8.000000,,2013-06-05 00:32:00,
2013-06-04 17:52:00,68.0,48.0,-100.00,South,172,1.0,2.0,48,0.00,,,0.00,9.000000,,2013-06-05 00:52:00,
2013-06-04 18:02:00,68.0,48.0,-100.00,South,172,1.0,2.0,48,0.00,,,0.00,9.000000,,2013-06-05 01:02:00,
2013-06-04 18:12:00,68.0,48.0,-100.00,South,172,1.0,2.0,48,0.00,,,0.00,9.000000,,2013-06-05 01:12:00,
2013-06-04 18:22:00,68.0,48.0,-100.00,South,172,1.0,2.0,48,0.00,,,0.00,9.000000,,2013-06-05 01:22:00,
2013-06-04 18:32:00,68.0,48.0,-100.00,South,172,1.0,2.0,48,0.00,,,0.00,9.000000,,2013-06-05 01:32:00,
2013-06-04 18:52:00,66.0,49.0,-100.00,South,182,0.0,2.0,55,0.00,,,0.00,9.000000,,2013-06-05 01:52:00,
2013-06-04 19:02:00,66.0,49.0,-100.00,South,182,0.0,2.0,55,0.00,,,0.00,9.000000,,2013-06-05 02:02:00,
2013-06-04 19:12:00,66.0,49.0,-100.00,South,182,0.0,2.0,55,0.00,,,0.00,9.000000,,2013-06-05 02:12:00,
2013-06-04 19:22:00,66.0,49.0,-100.00,South,182,0.0,2.0,55,0.00,,,0.00,9.000000,,2013-06-05 02:22:00,
2013-06-04 19:32:00,66.0,49.0,-100.00,South,182,0.0,2.0,55,0.00,,,0.00,9.000000,,2013-06-05 02:32:00,
2013-06-04 19:52:00,66.0,47.0,-100.00,South,177,0.0,2.0,51,0.00,,,0.00,10.000000,,2013-06-05 02:52:00,
2013-06-04 20:02:00,66.0,47.0,-100.00,South,177,0.0,2.0,51,0.00,,,0.00,10.000000,,2013-06-05 03:02:00,
2013-06-04 20:12:00,66.0,47.0,-100.00,South,177,0.0,2.0,51,0.00,,,0.00,10.000000,,2013-06-05 03:12:00,
2013-06-04 20:22:00,66.0,47.0,-100.00,South,177,0.0,2.0,51,0.00,,,0.00,10.000000,,2013-06-05 03:22:00,
2013-06-04 20:32:00,66.0,47.0,-100.00,South,177,0.0,2.0,51,0.00,,,0.00,10.000000,,2013-06-05 03:32:00,
2013-06-04 20:53:00,63.0,48.0,-100.00,SSW,201,1.0,2.0,57,0.00,,,0.00,11.000000,,2013-06-05 03:53:00,
2013-06-04 21:02:00,63.0,48.0,-100.00,SSW,201,1.0,2.0,57,0.00,,,0.00,11.000000,,2013-06-05 04:02:00,
2013-06-04 21:13:00,63.0,48.0,-100.00,SSW,201,1.0,2.0,57,0.00,,,0.00,11.000000,,2013-06-05 04:13:00,
2013-06-04 21:22:00,63.0,48.0,-100.00,SSW,201,1.0,2.0,57,0.00,,,0.00,11.000000,,2013-06-05 04:22:00,
2013-06-04 21:32:00,63.0,48.0,-100.00,SSW,201,1.0,2.0,57,0.00,,,0.00,11.000000,,2013-06-05 04:32:00,
2013-06-04 21:53:00,58.0,48.0,-100.00,North,0,0.0,2.0,69,0.00,,,-99.99,12.000000,,2013-06-05 04:53:00,
2013-06-04 22:02:00,58.0,48.0,-100.00,North,0,0.0,2.0,69,0.00,,,-99.99,12.000000,,2013-06-05 05:02:00,
2013-06-04 22:12:00,58.0,48.0,-100.00,North,0,0.0,2.0,69,0.00,,,-99.99,12.000000,,2013-06-05 05:12:00,
2013-06-04 22:22:00,58.0,48.0,-100.00,North,0,0.0,2.0,69,0.00,,,-99.99,12.000000,,2013-06-05 05:22:00,
2013-06-04 22:32:00,58.0,48.0,-100.00,North,0,0.0,2.0,69,0.00,,,-99.99,12.000000,,2013-06-05 05:32:00,
2013-06-04 22:52:00,55.0,48.0,-100.00,North,0,0.0,0.0,78,0.00,,,0.00,12.000000,,2013-06-05 05:52:00,
2013-06-04 23:02:00,55.0,48.0,-100.00,North,0,0.0,0.0,78,0.00,,,0.00,12.000000,,2013-06-05 06:02:00,
2013-06-04 23:12:00,55.0,48.0,-100.00,North,0,0.0,0.0,78,0.00,,,0.00,12.000000,,2013-06-05 06:12:00,
2013-06-04 23:22:00,55.0,48.0,-100.00,North,0,0.0,0.0,78,0.00,,,0.00,12.000000,,2013-06-05 06:22:00,
2013-06-04 23:32:00,55.0,48.0,-100.00,North,0,0.0,0.0,78,0.00,,,0.00,12.000000,,2013-06-05 06:32:00,
2013-06-04 23:52:00,53.0,48.0,-100.00,NE,43,0.0,1.0,82,0.00,,,0.00,13.000000,,2013-06-05 06:52:00,